createdAt,value
2023-04-08T00:02:05.173Z,17.40
2023-04-08T00:04:34.748Z,13.10
2023-04-08T00:07:06.524Z,13.80
2023-04-08T00:09:36.218Z,14.70
2023-04-08T00:12:06.300Z,12.60
2023-04-08T00:14:36.218Z,13.80
2023-04-08T00:17:06.235Z,14.80
2023-04-08T00:19:36.267Z,18.20
2023-04-08T00:22:07.459Z,13.70
2023-04-08T00:24:37.144Z,13.00
2023-04-08T00:27:07.335Z,16.00
2023-04-08T00:29:37.690Z,16.30
2023-04-08T00:32:07.725Z,14.70
2023-04-08T00:34:37.738Z,11.70
2023-04-08T00:37:07.465Z,19.30
2023-04-08T00:39:39.272Z,23.00
2023-04-08T00:42:10.690Z,18.70
2023-04-08T00:44:40.592Z,17.80
2023-04-08T00:47:14.198Z,19.70
2023-04-08T00:49:45.693Z,19.10
2023-04-08T00:52:15.180Z,15.50
2023-04-08T00:54:45.811Z,18.00
2023-04-08T00:57:15.412Z,18.70
2023-04-08T00:59:45.535Z,17.00
2023-04-08T01:02:33.207Z,13.70
2023-04-08T01:05:26.776Z,18.90
2023-04-08T01:07:58.271Z,15.10
2023-04-08T01:10:31.333Z,16.00
2023-04-08T01:13:06.310Z,17.70
2023-04-08T01:15:39.668Z,15.10
2023-04-08T01:18:13.879Z,15.90
2023-04-08T01:20:44.822Z,16.00
2023-04-08T01:23:25.813Z,14.70
2023-04-08T01:25:57.666Z,14.70
2023-04-08T01:28:32.052Z,12.00
2023-04-08T01:31:04.080Z,14.80
2023-04-08T01:33:35.679Z,12.20
2023-04-08T01:36:07.223Z,15.40
2023-04-08T01:38:40.554Z,13.50
2023-04-08T01:41:12.045Z,14.00
2023-04-08T01:43:44.406Z,13.70
2023-04-08T01:46:16.001Z,15.10
2023-04-08T01:48:46.654Z,12.80
2023-04-08T01:51:18.308Z,14.90
2023-04-08T01:53:48.326Z,14.40
2023-04-08T01:56:23.394Z,12.00
2023-04-08T01:58:57.775Z,12.60
2023-04-08T02:01:30.158Z,11.90
2023-04-08T02:04:01.551Z,11.10
2023-04-08T02:06:33.080Z,15.40
2023-04-08T02:09:02.503Z,15.50
2023-04-08T02:11:32.197Z,16.70
2023-04-08T02:14:02.022Z,20.90
2023-04-08T02:16:56.826Z,22.20
2023-04-08T02:19:38.537Z,16.40
2023-04-08T02:22:27.489Z,19.60
2023-04-08T02:25:00.537Z,16.40
2023-04-08T02:27:34.657Z,18.10
2023-04-08T02:30:09.578Z,14.90
2023-04-08T02:32:39.884Z,17.20
2023-04-08T02:35:12.328Z,17.40
2023-04-08T02:37:42.341Z,16.70
2023-04-08T02:40:25.458Z,16.00
2023-04-08T02:42:55.840Z,16.80
2023-04-08T02:45:41.733Z,17.60
2023-04-08T02:48:11.944Z,16.10
2023-04-08T02:50:43.449Z,16.10
2023-04-08T02:53:12.925Z,18.10
2023-04-08T02:55:43.443Z,17.30
2023-04-08T02:58:12.889Z,16.10
2023-04-08T03:00:42.106Z,14.00
2023-04-08T03:03:15.027Z,14.60
2023-04-08T03:05:44.622Z,13.90
2023-04-08T03:08:14.022Z,14.80
2023-04-08T03:10:43.593Z,14.10
2023-04-08T03:13:13.912Z,18.30
2023-04-08T03:15:45.016Z,14.80
2023-04-08T03:18:14.689Z,15.30
2023-04-08T03:20:44.215Z,13.90
2023-04-08T03:23:13.673Z,14.50
2023-04-08T03:25:44.655Z,14.00
2023-04-08T03:28:14.414Z,13.80
2023-04-08T03:30:44.628Z,14.40
2023-04-08T03:33:14.837Z,14.70
2023-04-08T03:35:45.584Z,14.10
2023-04-08T03:38:15.320Z,14.60
2023-04-08T03:40:45.304Z,15.90
2023-04-08T03:43:16.526Z,15.70
2023-04-08T03:45:46.405Z,15.50
2023-04-08T03:48:16.209Z,17.70
2023-04-08T03:50:46.315Z,18.10
2023-04-08T03:53:16.484Z,16.50
2023-04-08T03:55:53.379Z,15.90
2023-04-08T03:58:23.694Z,17.40
2023-04-08T04:00:52.761Z,16.30
2023-04-08T04:03:23.404Z,18.70
2023-04-08T04:05:53.455Z,15.70
2023-04-08T04:08:23.040Z,16.20
2023-04-08T04:10:52.544Z,17.20
2023-04-08T04:13:22.362Z,17.00
2023-04-08T04:15:52.486Z,17.00
2023-04-08T04:18:22.980Z,17.30
2023-04-08T04:20:52.686Z,16.60
2023-04-08T04:23:24.934Z,16.30
2023-04-08T04:25:56.669Z,14.40
2023-04-08T04:28:26.041Z,18.00
2023-04-08T04:30:56.765Z,15.90
2023-04-08T04:33:27.725Z,19.50
2023-04-08T04:35:57.640Z,19.10
2023-04-08T04:38:27.642Z,22.50
2023-04-08T04:40:58.361Z,17.90
2023-04-08T04:43:28.967Z,17.70
2023-04-08T04:45:58.347Z,18.70
2023-04-08T04:48:28.395Z,19.30
2023-04-08T04:51:03.612Z,19.30
2023-04-08T04:53:35.952Z,19.20
2023-04-08T04:56:06.268Z,19.60
2023-04-08T04:58:35.791Z,21.60
2023-04-08T05:01:07.258Z,18.60
2023-04-08T05:03:37.102Z,23.40
2023-04-08T05:06:07.526Z,19.30
2023-04-08T05:08:37.919Z,22.50
2023-04-08T05:11:11.335Z,21.90
2023-04-08T05:13:42.103Z,27.00
2023-04-08T05:16:14.179Z,27.90
2023-04-08T05:18:43.882Z,26.80
2023-04-08T05:21:14.558Z,31.60
2023-04-08T05:23:43.999Z,29.10
2023-04-08T05:26:15.900Z,30.30
2023-04-08T05:28:46.624Z,27.40
2023-04-08T05:31:20.236Z,30.50
2023-04-08T05:33:50.092Z,30.80
2023-04-08T05:36:19.584Z,29.40
2023-04-08T05:38:50.429Z,34.50
2023-04-08T05:41:20.136Z,31.30
2023-04-08T05:43:52.610Z,29.80
2023-04-08T05:46:23.004Z,23.60
2023-04-08T05:48:53.139Z,26.40
2023-04-08T05:51:23.410Z,26.60
2023-04-08T05:53:52.743Z,33.60
2023-04-08T05:56:23.165Z,29.10
2023-04-08T05:58:53.689Z,25.20
2023-04-08T06:01:25.979Z,24.60
2023-04-08T06:03:59.145Z,21.80
2023-04-08T06:06:30.728Z,20.40
2023-04-08T06:09:00.717Z,22.70
2023-04-08T06:11:31.845Z,22.60
2023-04-08T06:14:01.800Z,17.40
2023-04-08T06:16:31.637Z,17.70
2023-04-08T06:19:01.137Z,15.70
2023-04-08T06:24:03.235Z,15.40
2023-04-08T06:26:33.269Z,13.30
2023-04-08T06:29:03.657Z,14.50
2023-04-08T06:31:37.862Z,15.40
2023-04-08T06:34:07.826Z,16.10
2023-04-08T06:36:38.223Z,17.90
2023-04-08T06:39:09.390Z,17.80
2023-04-08T06:41:42.510Z,22.30
2023-04-08T06:44:24.458Z,19.00
2023-04-08T06:46:54.345Z,19.60
2023-04-08T06:49:25.058Z,16.80
2023-04-08T06:51:54.643Z,16.20
2023-04-08T06:54:23.854Z,18.20
2023-04-08T06:56:53.407Z,17.70
2023-04-08T06:59:23.602Z,15.10
2023-04-08T07:01:54.359Z,18.10
2023-04-08T07:04:25.129Z,16.60
2023-04-08T07:06:58.175Z,16.80
2023-04-08T07:09:28.277Z,16.30
2023-04-08T07:12:00.592Z,16.30
2023-04-08T07:14:30.341Z,17.80
2023-04-08T07:16:59.718Z,18.90
2023-04-08T07:19:30.387Z,16.80
2023-04-08T07:22:00.434Z,17.10
2023-04-08T07:24:29.787Z,16.10
2023-04-08T07:26:59.252Z,24.10
2023-04-08T07:29:29.424Z,23.60
2023-04-08T07:32:02.877Z,20.50
2023-04-08T07:34:32.425Z,20.70
2023-04-08T07:37:02.010Z,15.80
2023-04-08T07:39:31.547Z,18.30
2023-04-08T07:42:01.366Z,19.10
2023-04-08T07:44:31.203Z,17.90
2023-04-08T07:47:01.494Z,14.80
2023-04-08T07:49:32.011Z,14.20
2023-04-08T07:52:02.335Z,13.30
2023-04-08T07:54:34.991Z,14.00
2023-04-08T07:57:05.274Z,12.90
2023-04-08T07:59:34.680Z,11.50
2023-04-08T08:02:05.665Z,11.70
2023-04-08T08:04:36.966Z,10.40
2023-04-08T08:07:06.880Z,10.80
2023-04-08T08:09:36.425Z,9.70
2023-04-08T08:12:06.319Z,11.40
2023-04-08T08:14:37.151Z,9.80
2023-04-08T08:17:08.797Z,11.00
2023-04-08T08:19:38.275Z,9.90
2023-04-08T08:22:12.508Z,10.60
2023-04-08T08:24:43.153Z,8.90
2023-04-08T08:27:12.506Z,9.70
2023-04-08T08:29:41.993Z,8.60
2023-04-08T08:32:13.122Z,9.70
2023-04-08T08:34:43.037Z,10.00
2023-04-08T08:37:12.505Z,10.50
2023-04-08T08:39:43.394Z,10.00
2023-04-08T08:42:22.402Z,10.40
2023-04-08T08:44:52.095Z,9.20
2023-04-08T08:47:21.480Z,9.00
2023-04-08T08:49:51.537Z,8.70
2023-04-08T08:52:22.123Z,8.70
2023-04-08T08:55:00.653Z,8.90
2023-04-08T08:57:30.275Z,11.80
2023-04-08T09:00:00.755Z,10.00
2023-04-08T09:02:32.810Z,7.90
2023-04-08T09:05:04.936Z,7.80
2023-04-08T09:10:11.283Z,8.30
2023-04-08T09:12:56.883Z,8.80
2023-04-08T09:15:27.851Z,8.30
2023-04-08T09:17:58.945Z,9.30
2023-04-08T09:20:28.793Z,8.10
2023-04-08T09:23:03.183Z,8.00
2023-04-08T09:25:36.371Z,8.70
2023-04-08T09:28:06.984Z,9.60
2023-04-08T09:30:37.418Z,8.40
2023-04-08T09:33:07.874Z,8.80
2023-04-08T09:35:37.290Z,9.30
2023-04-08T09:38:07.544Z,8.60
2023-04-08T09:40:38.334Z,9.60
2023-04-08T09:43:10.051Z,8.40
2023-04-08T09:45:43.321Z,10.50
2023-04-08T09:48:18.873Z,7.60
2023-04-08T09:50:52.375Z,8.40
2023-04-08T09:53:39.464Z,9.80
2023-04-08T09:56:12.923Z,8.40
2023-04-08T09:59:01.566Z,8.70
2023-04-08T10:01:44.735Z,8.00
2023-04-08T10:04:19.815Z,9.00
2023-04-08T10:06:56.058Z,8.30
2023-04-08T10:09:27.737Z,8.30
2023-04-08T10:11:57.040Z,7.80
2023-04-08T10:14:29.191Z,7.50
2023-04-08T10:17:46.975Z,8.70
2023-04-08T10:20:37.631Z,6.50
2023-04-08T10:23:14.134Z,8.80
2023-04-08T10:25:47.130Z,7.50
2023-04-08T10:28:19.982Z,8.50
2023-04-08T10:30:54.447Z,8.00
2023-04-08T10:33:40.632Z,10.10
2023-04-08T10:36:12.533Z,7.90
2023-04-08T10:38:43.285Z,9.50
2023-04-08T10:41:14.676Z,6.10
2023-04-08T10:43:47.993Z,7.20
2023-04-08T10:46:18.733Z,6.20
2023-04-08T10:49:04.214Z,9.00
2023-04-08T10:51:35.306Z,7.20
2023-04-08T10:54:15.065Z,8.00
2023-04-08T10:56:46.969Z,7.10
2023-04-08T10:59:23.445Z,7.50
2023-04-08T11:01:52.929Z,8.20
2023-04-08T11:04:24.351Z,7.70
2023-04-08T11:06:55.218Z,8.50
2023-04-08T11:09:25.170Z,8.20
2023-04-08T11:11:56.065Z,10.00
2023-04-08T11:14:33.559Z,8.80
2023-04-08T11:17:06.521Z,8.80
2023-04-08T11:19:37.813Z,10.20
2023-04-08T11:22:21.736Z,7.40
2023-04-08T11:24:52.788Z,9.80
2023-04-08T11:27:26.322Z,11.70
2023-04-08T11:29:59.654Z,11.50
2023-04-08T11:32:34.188Z,12.00
2023-04-08T11:35:08.251Z,9.30
2023-04-08T11:37:42.451Z,9.40
2023-04-08T11:40:13.650Z,7.90
2023-04-08T11:42:45.046Z,6.70
2023-04-08T11:45:17.892Z,9.20
2023-04-08T11:47:49.193Z,9.70
2023-04-08T11:50:26.112Z,9.80
2023-04-08T11:53:22.828Z,10.30
2023-04-08T11:55:52.828Z,10.50
2023-04-08T11:58:23.324Z,10.00
2023-04-08T12:00:52.619Z,9.30
2023-04-08T12:03:23.223Z,7.90
2023-04-08T12:05:52.547Z,9.10
2023-04-08T12:08:23.992Z,7.60
2023-04-08T12:10:54.548Z,9.50
2023-04-08T12:13:23.810Z,9.60
2023-04-08T12:15:53.657Z,10.50
2023-04-08T12:18:23.744Z,9.70
2023-04-08T12:20:55.291Z,8.90
2023-04-08T12:23:25.664Z,7.80
2023-04-08T12:25:54.806Z,8.30
2023-04-08T12:28:24.349Z,9.40
2023-04-08T12:30:59.375Z,9.00
2023-04-08T12:33:29.325Z,7.90
2023-04-08T12:36:00.981Z,8.80
2023-04-08T12:38:30.574Z,8.30
2023-04-08T12:41:00.272Z,8.80
2023-04-08T12:43:31.149Z,6.80
2023-04-08T12:46:00.798Z,8.10
2023-04-08T12:48:30.534Z,7.10
2023-04-08T12:51:00.328Z,10.90
2023-04-08T12:53:30.247Z,8.10
2023-04-08T12:56:00.684Z,6.60
2023-04-08T12:58:30.173Z,9.00
2023-04-08T13:00:59.987Z,8.50
2023-04-08T13:03:32.334Z,8.70
2023-04-08T13:06:01.896Z,8.70
2023-04-08T13:08:31.728Z,8.70
2023-04-08T13:11:01.735Z,8.50
2023-04-08T13:13:31.842Z,9.50
2023-04-08T13:16:03.759Z,9.50
2023-04-08T13:18:34.224Z,8.40
2023-04-08T13:21:05.062Z,11.60
2023-04-08T13:23:35.524Z,8.90
2023-04-08T13:26:07.181Z,8.20
2023-04-08T13:28:53.599Z,10.60
2023-04-08T13:31:27.127Z,8.80
2023-04-08T13:33:58.473Z,9.60
2023-04-08T13:36:29.331Z,9.10
2023-04-08T13:38:59.687Z,8.60
2023-04-08T13:41:30.009Z,8.30
2023-04-08T13:43:59.742Z,7.90
2023-04-08T13:46:29.581Z,8.10
2023-04-08T13:48:59.261Z,10.20
2023-04-08T13:51:28.636Z,7.50
2023-04-08T13:53:58.803Z,9.10
2023-04-08T13:56:28.434Z,9.80
2023-04-08T13:58:58.193Z,8.70
2023-04-08T14:01:27.715Z,8.90
2023-04-08T14:03:58.098Z,9.40
2023-04-08T14:06:28.359Z,9.50
2023-04-08T14:08:59.195Z,8.70
2023-04-08T14:11:28.323Z,9.40
2023-04-08T14:13:58.284Z,10.20
2023-04-08T14:16:31.311Z,7.70
2023-04-08T14:19:01.158Z,8.60
2023-04-08T14:21:32.341Z,7.40
2023-04-08T14:24:07.009Z,8.40
2023-04-08T14:26:37.928Z,8.50
2023-04-08T14:29:07.415Z,10.10
2023-04-08T14:31:36.963Z,10.30
2023-04-08T14:34:07.217Z,8.30
2023-04-08T14:36:37.272Z,7.60
2023-04-08T14:39:06.888Z,10.50
2023-04-08T14:41:36.875Z,8.10
2023-04-08T14:44:06.186Z,8.00
2023-04-08T14:46:36.260Z,9.50
2023-04-08T14:49:07.597Z,10.10
2023-04-08T14:51:38.426Z,9.10
2023-04-08T14:54:11.125Z,8.40
2023-04-08T14:56:40.739Z,9.30
2023-04-08T14:59:10.897Z,9.60
2023-04-08T15:01:41.835Z,10.20
2023-04-08T15:04:11.582Z,10.40
2023-04-08T15:06:41.496Z,10.00
2023-04-08T15:09:12.175Z,8.90
2023-04-08T15:11:42.326Z,9.10
2023-04-08T15:14:12.599Z,9.30
2023-04-08T15:16:42.246Z,10.10
2023-04-08T15:19:12.281Z,7.80
2023-04-08T15:21:42.217Z,9.40
2023-04-08T15:24:11.995Z,10.70
2023-04-08T15:26:43.116Z,9.70
2023-04-08T15:29:12.888Z,10.80
2023-04-08T15:31:42.524Z,10.10
2023-04-08T15:34:12.786Z,8.60
2023-04-08T15:36:42.347Z,9.20
2023-04-08T15:39:12.723Z,7.80
2023-04-08T15:41:42.614Z,9.70
2023-04-08T15:44:12.202Z,11.10
2023-04-08T15:46:42.246Z,9.60
2023-04-08T15:49:13.496Z,9.90
2023-04-08T15:51:45.196Z,8.50
2023-04-08T15:54:14.447Z,8.10
2023-04-08T15:56:47.106Z,9.90
2023-04-08T15:59:17.248Z,10.00
2023-04-08T16:01:47.384Z,9.60
2023-04-08T16:04:18.086Z,10.70
2023-04-08T16:06:49.267Z,10.00
2023-04-08T16:09:23.967Z,10.20
2023-04-08T16:11:54.058Z,10.20
2023-04-08T16:14:24.192Z,8.60
2023-04-08T16:16:54.585Z,10.20
2023-04-08T16:19:23.876Z,11.90
2023-04-08T16:21:53.814Z,11.80
2023-04-08T16:24:23.762Z,10.40
2023-04-08T16:26:53.534Z,10.90
2023-04-08T16:29:23.455Z,11.40
2023-04-08T16:31:54.470Z,11.50
2023-04-08T16:34:26.046Z,10.40
2023-04-08T16:36:56.989Z,10.50
2023-04-08T16:39:26.991Z,11.40
2023-04-08T16:41:57.460Z,9.60
2023-04-08T16:44:26.475Z,13.40
2023-04-08T16:46:56.765Z,10.40
2023-04-08T16:49:26.086Z,11.10
2023-04-08T16:51:55.529Z,12.20
2023-04-08T16:54:25.078Z,11.10
2023-04-08T16:57:00.166Z,11.70
2023-04-08T16:59:29.833Z,10.50
2023-04-08T17:01:59.887Z,10.10
2023-04-08T17:04:29.193Z,13.10
2023-04-08T17:06:58.589Z,11.80
2023-04-08T17:09:29.309Z,15.70
2023-04-08T17:11:58.876Z,11.90
2023-04-08T17:14:28.906Z,11.40
2023-04-08T17:16:58.458Z,12.10
2023-04-08T17:19:27.886Z,22.20
2023-04-08T17:21:57.246Z,16.50
2023-04-08T17:24:29.028Z,13.20
2023-04-08T17:27:00.789Z,13.50
2023-04-08T17:29:31.500Z,12.00
2023-04-08T17:32:03.021Z,13.30
2023-04-08T17:34:33.451Z,12.10
2023-04-08T17:37:02.457Z,11.70
2023-04-08T17:39:32.249Z,14.90
2023-04-08T17:42:02.914Z,14.40
2023-04-08T17:44:32.493Z,12.70
2023-04-08T17:47:01.544Z,15.80
2023-04-08T17:49:31.290Z,15.50
2023-04-08T17:52:01.073Z,14.70
2023-04-08T17:54:33.643Z,17.10
2023-04-08T17:57:03.850Z,17.40
2023-04-08T17:59:34.369Z,18.30
2023-04-08T18:02:03.823Z,18.90
2023-04-08T18:04:33.263Z,18.10
2023-04-08T18:07:05.938Z,17.60
2023-04-08T18:09:36.745Z,16.40
2023-04-08T18:12:07.106Z,17.60
2023-04-08T18:14:37.494Z,16.90
2023-04-08T18:17:06.951Z,14.70
2023-04-08T18:19:37.942Z,17.30
2023-04-08T18:22:07.963Z,16.30
2023-04-08T18:24:37.958Z,18.90
2023-04-08T18:27:09.153Z,19.90
2023-04-08T18:29:38.661Z,17.50
2023-04-08T18:32:08.461Z,19.70
2023-04-08T18:34:40.198Z,17.70
2023-04-08T18:37:11.587Z,20.00
2023-04-08T18:39:42.026Z,19.40
2023-04-08T18:42:11.631Z,16.70
2023-04-08T18:44:41.580Z,26.00
2023-04-08T18:47:11.696Z,22.70
2023-04-08T18:49:41.669Z,18.70
2023-04-08T18:52:11.227Z,21.30
2023-04-08T18:54:40.749Z,19.90
2023-04-08T18:57:11.130Z,20.30
2023-04-08T18:59:41.240Z,20.50
2023-04-08T19:02:12.056Z,22.60
2023-04-08T19:04:44.085Z,31.40
2023-04-08T19:07:13.372Z,37.20
2023-04-08T19:09:42.799Z,50.10
2023-04-08T19:12:13.406Z,26.30
2023-04-08T19:14:43.863Z,27.30
2023-04-08T19:17:13.487Z,24.30
2023-04-08T19:19:47.211Z,26.00
2023-04-08T19:22:17.394Z,24.00
2023-04-08T19:24:48.129Z,27.20
2023-04-08T19:27:17.400Z,27.80
2023-04-08T19:29:47.654Z,22.80
2023-04-08T19:32:17.184Z,25.70
2023-04-08T19:34:47.340Z,23.50
2023-04-08T19:37:16.661Z,20.10
2023-04-08T19:39:46.210Z,17.40
2023-04-08T19:42:15.769Z,21.60
2023-04-08T19:44:47.897Z,20.10
2023-04-08T19:49:48.404Z,19.90
2023-04-08T19:52:21.040Z,21.20
2023-04-08T19:54:51.917Z,21.30
2023-04-08T19:57:21.661Z,23.20
2023-04-08T19:59:55.701Z,23.70
2023-04-08T20:02:25.955Z,24.40
2023-04-08T20:04:57.830Z,22.20
2023-04-08T20:07:28.070Z,24.60
2023-04-08T20:09:57.619Z,28.70
2023-04-08T20:12:27.718Z,24.00
2023-04-08T20:14:57.392Z,29.30
2023-04-08T20:17:27.858Z,28.30
2023-04-08T20:19:59.716Z,26.70
2023-04-08T20:22:29.245Z,29.50
2023-04-08T20:25:02.463Z,30.20
2023-04-08T20:27:32.125Z,26.60
2023-04-08T20:30:01.707Z,28.60
2023-04-08T20:32:31.381Z,26.30
2023-04-08T20:35:01.480Z,28.50
2023-04-08T20:37:31.246Z,27.60
2023-04-08T20:40:02.849Z,27.10
2023-04-08T20:42:32.548Z,26.90
2023-04-08T20:45:02.210Z,26.90
2023-04-08T20:47:32.298Z,27.10
2023-04-08T20:50:02.953Z,21.40
2023-04-08T20:52:34.795Z,27.40
2023-04-08T20:55:05.976Z,29.50
2023-04-08T20:57:35.877Z,25.60
2023-04-08T21:00:07.062Z,24.90
2023-04-08T21:02:37.287Z,27.60
2023-04-08T21:05:07.650Z,24.30
2023-04-08T21:07:38.964Z,24.00
2023-04-08T21:10:10.275Z,24.10
2023-04-08T21:12:40.154Z,23.00
2023-04-08T21:15:11.064Z,26.40
2023-04-08T21:17:44.377Z,24.40
2023-04-08T21:20:13.976Z,22.10
2023-04-08T21:22:44.621Z,22.70
2023-04-08T21:25:14.568Z,23.10
2023-04-08T21:27:44.611Z,22.70
2023-04-08T21:30:17.311Z,20.60
2023-04-08T21:32:47.501Z,24.60
2023-04-08T21:35:16.672Z,20.90
2023-04-08T21:37:47.055Z,17.50
2023-04-08T21:40:17.894Z,20.20
2023-04-08T21:42:47.295Z,18.20
2023-04-08T21:45:17.415Z,24.50
2023-04-08T21:47:47.773Z,20.50
2023-04-08T21:50:18.408Z,18.60
2023-04-08T21:52:47.766Z,24.50
2023-04-08T21:55:17.288Z,21.30
2023-04-08T21:57:47.300Z,20.40
2023-04-08T22:00:17.394Z,22.40
2023-04-08T22:02:48.466Z,21.80
2023-04-08T22:05:18.024Z,20.40
2023-04-08T22:07:47.321Z,23.60
2023-04-08T22:10:17.609Z,24.30
2023-04-08T22:12:48.157Z,28.40
2023-04-08T22:15:18.583Z,31.90
2023-04-08T22:17:49.009Z,26.60
2023-04-08T22:20:19.294Z,25.30
2023-04-08T22:22:49.042Z,30.20
2023-04-08T22:25:21.224Z,22.40
2023-04-08T22:27:52.173Z,22.30
2023-04-08T22:30:21.817Z,21.20
2023-04-08T22:32:51.185Z,23.50
2023-04-08T22:35:20.831Z,21.50
2023-04-08T22:37:50.676Z,26.40
2023-04-08T22:40:21.406Z,22.70
2023-04-08T22:42:50.939Z,23.00
2023-04-08T22:45:21.689Z,24.30
2023-04-08T22:47:54.119Z,24.00
2023-04-08T22:52:54.892Z,19.30
2023-04-08T22:55:24.896Z,23.70
2023-04-08T22:57:54.544Z,23.60
2023-04-08T23:00:24.985Z,24.50
2023-04-08T23:02:55.203Z,28.60
2023-04-08T23:05:25.089Z,25.60
2023-04-08T23:07:54.794Z,28.60
2023-04-08T23:10:26.714Z,27.20
2023-04-08T23:12:56.971Z,23.80
2023-04-08T23:15:27.090Z,25.80
2023-04-08T23:17:56.887Z,24.70
2023-04-08T23:20:26.459Z,22.10
2023-04-08T23:22:55.557Z,22.90
2023-04-08T23:25:26.432Z,25.40
2023-04-08T23:27:55.988Z,24.80
2023-04-08T23:30:26.786Z,25.30
2023-04-08T23:32:56.322Z,27.50
2023-04-08T23:35:26.282Z,24.80
2023-04-08T23:37:56.472Z,27.10
2023-04-08T23:40:26.426Z,28.40
2023-04-08T23:42:55.985Z,26.00
2023-04-08T23:45:26.004Z,25.30
2023-04-08T23:47:55.366Z,23.70
2023-04-08T23:50:25.038Z,23.90
2023-04-08T23:52:54.240Z,24.30
2023-04-08T23:55:24.005Z,22.30
2023-04-08T23:58:00.905Z,22.00
